Fort Peck, MT

6:45 AM MDT on August 28, 2015 (GMT -0600)
Sturgeon Bay | | Change Station
CLOSE
Current Station
Personal Weather Station
Location: Fort Peck, MT
Elevation: 2287 ft
Nearby Weather Stations

Elev 2287 ft 47.99 °N, 106.50 °W | Updated 5 minutes ago

Clear
Clear
64.6 °F
Feels Like 64.6 °F
N
0.7
Wind Variable Wind from SSW
Gusts 3.8 mph

Today
High -- | Low -- °F
--% Chance of Precip.
Yesterday
High -- | Low -- °F
Precip. -- in
6:18 AM 7:55 PM
Waxing Gibbous, 98% visible
Pressure 29.86 in
Visibility 8.0 miles
Clouds Clear
Dew Point 50 °F
Humidity 59%
Rainfall 0.00 in
Snow Depth Not available.
UV 0 out of 12
Pollen 10.00 out of 12
Air Quality Not available.
Flu Activity Not available.
METAR KGGW 281153Z AUTO 25003KT 8SM CLR 15/11 A2989 RMK AO2 SLP110 T01500111 10200 20144 50005
Pressure 29.86 in
Visibility 8.0 miles
Clouds Clear
Dew Point 50 °F
Humidity 59%
Rainfall 0.00 in
Snow Depth Not available.
UV 0 out of 12
Pollen 10.00 out of 12
Air Quality Not available.
Flu Activity Not available.
METAR KGGW 281153Z AUTO 25003KT 8SM CLR 15/11 A2989 RMK AO2 SLP110 T01500111 10200 20144 50005

10-Day Weather Forecast

×

Almanac

Astronomy

Aug. 28, 2015 Rise Set
Actual Time
Civil Twilight
Nautical Twilight
Astronomical Twilight
Moon
Length of Visible Light
Length of Day
Tomorrow will be .
, % of the Moon is Illuminated

Today's Extremes

State Highs State Lows

Community

WunderPhotos

Upload Photos

1,850,373 photos uploaded!

WunderBlogs® & News

Nearby

Air Quality

  Air Quality AQ Index Pollutant
Not available.

Snow Depth

Station Depth Elevation

Earthquake Activity

City Distance Mag. Time & Date
Minimum magnitude displayed is 2.5.

Coastal Water Temperatures

Place Temperature

Stations

Nearby Weather Stations

Station Location Temp. Windchill Dew Point Humidity Wind Precip. Elev Updated Type